createdAt,value
2023-03-11T00:00:42.899Z,65.11
2023-03-11T00:03:15.031Z,66.52
2023-03-11T00:05:44.969Z,67.31
2023-03-11T00:08:15.549Z,66.43
2023-03-11T00:10:47.192Z,66.63
2023-03-11T00:13:17.344Z,66.55
2023-03-11T00:15:47.457Z,66.58
2023-03-11T00:18:15.804Z,64.88
2023-03-11T00:20:46.503Z,65.70
2023-03-11T00:23:16.250Z,65.89
2023-03-11T00:25:47.332Z,64.94
2023-03-11T00:28:17.261Z,65.50
2023-03-11T00:30:47.551Z,65.57
2023-03-11T00:33:17.440Z,63.37
2023-03-11T00:35:46.209Z,62.92
2023-03-11T00:38:16.883Z,63.69
2023-03-11T00:40:48.521Z,63.86
2023-03-11T00:43:17.971Z,64.59
2023-03-11T00:45:46.665Z,62.80
2023-03-11T00:48:15.652Z,63.36
2023-03-11T00:50:44.571Z,63.50
2023-03-11T00:53:13.541Z,62.57
2023-03-11T00:55:41.994Z,62.67
2023-03-11T00:58:12.885Z,62.03
2023-03-11T01:00:41.614Z,61.84
2023-03-11T01:03:11.037Z,62.53
2023-03-11T01:05:39.786Z,62.39
2023-03-11T01:08:08.257Z,62.82
2023-03-11T01:10:37.014Z,61.21
2023-03-11T01:13:06.329Z,61.25
2023-03-11T01:15:38.088Z,60.39
2023-03-11T01:18:07.899Z,61.55
2023-03-11T01:20:37.017Z,61.39
2023-03-11T01:23:05.930Z,61.55
2023-03-11T01:25:34.403Z,59.79
2023-03-11T01:28:02.812Z,61.68
2023-03-11T01:30:31.786Z,61.17
2023-03-11T01:33:01.597Z,61.40
2023-03-11T01:35:31.643Z,60.82
2023-03-11T01:38:06.060Z,60.31
2023-03-11T01:40:37.099Z,60.03
2023-03-11T01:43:07.037Z,60.50
2023-03-11T01:45:43.854Z,60.26
2023-03-11T01:48:13.582Z,59.71
2023-03-11T01:50:46.414Z,60.57
2023-03-11T01:53:16.915Z,60.60
2023-03-11T01:55:46.116Z,60.93
2023-03-11T01:58:20.213Z,60.78
2023-03-11T02:00:48.916Z,61.21
2023-03-11T02:03:23.278Z,60.88
2023-03-11T02:05:54.108Z,59.97
2023-03-11T02:08:22.519Z,60.02
2023-03-11T02:10:53.156Z,59.66
2023-03-11T02:13:22.500Z,59.62
2023-03-11T02:15:51.218Z,58.27
2023-03-11T02:18:22.401Z,59.40
2023-03-11T02:20:56.627Z,58.42
2023-03-11T02:23:31.927Z,59.26
2023-03-11T02:26:07.561Z,58.63
2023-03-11T02:28:39.043Z,58.31
2023-03-11T02:31:07.701Z,58.96
2023-03-11T02:33:38.122Z,57.81
2023-03-11T02:36:07.332Z,58.39
2023-03-11T02:38:35.638Z,58.75
2023-03-11T02:41:04.982Z,59.05
2023-03-11T02:43:40.904Z,59.01
2023-03-11T02:46:11.376Z,57.85
2023-03-11T02:48:40.967Z,58.31
2023-03-11T02:51:09.250Z,58.52
2023-03-11T02:53:43.038Z,58.76
2023-03-11T02:56:11.370Z,58.43
2023-03-11T02:58:41.035Z,58.49
2023-03-11T03:01:09.636Z,58.59
2023-03-11T03:03:38.082Z,58.51
2023-03-11T03:06:07.170Z,58.30
2023-03-11T03:08:35.456Z,58.40
2023-03-11T03:11:03.826Z,58.53
2023-03-11T03:13:32.581Z,58.42
2023-03-11T03:16:02.467Z,57.92
2023-03-11T03:18:31.000Z,57.65
2023-03-11T03:20:59.320Z,58.23
2023-03-11T03:23:27.775Z,58.35
2023-03-11T03:25:56.200Z,58.74
2023-03-11T03:28:24.508Z,59.30
2023-03-11T03:30:52.746Z,58.28
2023-03-11T03:33:22.606Z,58.41
2023-03-11T03:35:51.220Z,58.45
2023-03-11T03:38:19.524Z,58.00
2023-03-11T03:40:49.259Z,58.10
2023-03-11T03:43:17.929Z,58.12
2023-03-11T03:45:46.564Z,57.62
2023-03-11T03:48:14.828Z,58.11
2023-03-11T03:50:44.595Z,57.96
2023-03-11T03:53:12.850Z,57.40
2023-03-11T03:55:41.251Z,56.73
2023-03-11T03:58:09.883Z,56.76
2023-03-11T04:00:38.875Z,56.81
2023-03-11T04:03:07.759Z,56.84
2023-03-11T04:05:36.709Z,56.62
2023-03-11T04:08:06.880Z,56.38
2023-03-11T04:10:35.145Z,55.42
2023-03-11T04:13:03.468Z,56.17
2023-03-11T04:15:31.784Z,56.89
2023-03-11T04:18:00.046Z,57.13
2023-03-11T04:20:28.370Z,56.59
2023-03-11T04:22:56.613Z,56.23
2023-03-11T04:25:26.436Z,56.27
2023-03-11T04:27:54.746Z,55.96
2023-03-11T04:30:23.360Z,56.46
2023-03-11T04:32:51.743Z,56.44
2023-03-11T04:35:20.205Z,57.20
2023-03-11T04:37:48.609Z,57.10
2023-03-11T04:40:17.313Z,56.32
2023-03-11T04:42:47.368Z,56.87
2023-03-11T04:45:18.545Z,56.75
2023-03-11T04:47:49.661Z,57.00
2023-03-11T04:50:18.546Z,57.30
2023-03-11T04:52:47.409Z,57.70
2023-03-11T04:55:16.742Z,57.50
2023-03-11T04:57:46.620Z,57.72
2023-03-11T05:00:16.977Z,56.53
2023-03-11T05:02:45.246Z,56.68
2023-03-11T05:05:14.255Z,57.45
2023-03-11T05:07:42.567Z,57.97
2023-03-11T05:10:12.099Z,57.61
2023-03-11T05:12:40.480Z,57.18
2023-03-11T05:15:11.035Z,57.33
2023-03-11T05:17:39.283Z,57.14
2023-03-11T05:20:08.922Z,57.85
2023-03-11T05:22:37.669Z,57.61
2023-03-11T05:25:06.962Z,57.48
2023-03-11T05:27:35.290Z,57.16
2023-03-11T05:30:03.585Z,57.50
2023-03-11T05:32:33.312Z,57.64
2023-03-11T05:35:01.676Z,57.81
2023-03-11T05:37:32.850Z,57.15
2023-03-11T05:40:01.178Z,57.52
2023-03-11T05:42:29.850Z,57.36
2023-03-11T05:44:58.226Z,56.52
2023-03-11T05:47:26.625Z,56.45
2023-03-11T05:49:57.271Z,56.93
2023-03-11T05:52:25.593Z,56.66
2023-03-11T05:54:54.542Z,57.17
2023-03-11T05:57:22.906Z,56.72
2023-03-11T05:59:51.210Z,56.95
2023-03-11T06:02:21.209Z,56.18
2023-03-11T06:04:50.029Z,56.04
2023-03-11T06:07:19.879Z,56.37
2023-03-11T06:09:48.201Z,56.91
2023-03-11T06:12:16.521Z,56.93
2023-03-11T06:14:45.011Z,56.52
2023-03-11T06:17:13.378Z,56.76
2023-03-11T06:19:41.874Z,56.65
2023-03-11T06:22:10.123Z,56.49
2023-03-11T06:24:39.922Z,56.92
2023-03-11T06:27:09.433Z,56.98
2023-03-11T06:29:38.086Z,56.60
2023-03-11T06:32:07.009Z,56.93
2023-03-11T06:34:35.268Z,57.47
2023-03-11T06:37:03.523Z,57.30
2023-03-11T06:39:31.857Z,57.29
2023-03-11T06:42:01.795Z,57.82
2023-03-11T06:44:30.107Z,57.58
2023-03-11T06:46:58.369Z,57.74
2023-03-11T06:49:26.849Z,57.56
2023-03-11T06:51:55.584Z,58.07
2023-03-11T06:54:24.463Z,58.03
2023-03-11T06:56:53.071Z,58.27
2023-03-11T06:59:23.089Z,57.91
2023-03-11T07:01:51.522Z,57.67
2023-03-11T07:04:19.888Z,57.90
2023-03-11T07:06:48.280Z,57.63
2023-03-11T07:09:16.744Z,57.73
2023-03-11T07:11:45.134Z,57.98
2023-03-11T07:14:13.560Z,57.83
2023-03-11T07:16:43.680Z,57.44
2023-03-11T07:19:12.828Z,57.00
2023-03-11T07:21:41.764Z,57.25
2023-03-11T07:24:12.877Z,57.27
2023-03-11T07:26:43.749Z,57.07
2023-03-11T07:29:12.760Z,57.29
2023-03-11T07:31:42.707Z,57.79
2023-03-11T07:34:14.243Z,57.96
2023-03-11T07:36:43.396Z,57.09
2023-03-11T07:39:16.200Z,57.09
2023-03-11T07:41:45.445Z,57.02
2023-03-11T07:44:14.549Z,56.75
2023-03-11T07:46:44.985Z,56.05
2023-03-11T07:49:14.052Z,55.95
2023-03-11T07:51:43.809Z,55.03
2023-03-11T07:54:13.476Z,55.15
2023-03-11T07:56:42.381Z,55.72
2023-03-11T07:59:10.835Z,54.76
2023-03-11T08:01:41.564Z,55.45
2023-03-11T08:04:14.310Z,55.73
2023-03-11T08:06:45.346Z,55.47
2023-03-11T08:09:14.433Z,55.98
2023-03-11T08:11:43.783Z,55.04
2023-03-11T08:14:12.053Z,55.08
2023-03-11T08:16:41.623Z,54.85
2023-03-11T08:19:13.752Z,55.04
2023-03-11T08:21:42.300Z,54.49
2023-03-11T08:24:13.304Z,54.88
2023-03-11T08:26:41.986Z,54.73
2023-03-11T08:29:10.565Z,55.09
2023-03-11T08:31:39.541Z,54.63
2023-03-11T08:34:11.781Z,54.69
2023-03-11T08:36:40.640Z,54.29
2023-03-11T08:39:09.635Z,54.83
2023-03-11T08:41:38.030Z,54.31
2023-03-11T08:44:06.615Z,54.68
2023-03-11T08:46:37.242Z,54.65
2023-03-11T08:49:06.256Z,53.85
2023-03-11T08:51:37.488Z,53.96
2023-03-11T08:54:06.665Z,53.92
2023-03-11T08:56:35.146Z,53.31
2023-03-11T08:59:03.434Z,53.06
2023-03-11T09:01:31.950Z,53.32
2023-03-11T09:04:00.330Z,53.15
2023-03-11T09:06:30.531Z,52.04
2023-03-11T09:09:00.443Z,52.42
2023-03-11T09:11:28.799Z,52.54
2023-03-11T09:13:57.248Z,52.98
2023-03-11T09:16:26.092Z,52.63
2023-03-11T09:18:54.502Z,52.89
2023-03-11T09:21:23.077Z,52.75
2023-03-11T09:23:51.438Z,52.08
2023-03-11T09:26:21.897Z,51.49
2023-03-11T09:28:50.323Z,51.82
2023-03-11T09:31:19.687Z,51.35
2023-03-11T09:33:50.085Z,50.48
2023-03-11T09:36:20.802Z,49.63
2023-03-11T09:38:50.106Z,50.25
2023-03-11T09:41:29.825Z,50.56
2023-03-11T09:44:12.026Z,50.58
2023-03-11T09:47:15.748Z,49.55
2023-03-11T09:50:12.272Z,50.02
2023-03-11T09:52:46.358Z,50.16
2023-03-11T09:55:33.356Z,50.56
2023-03-11T09:58:08.875Z,49.54
2023-03-11T10:00:37.606Z,49.93
2023-03-11T10:03:14.682Z,49.50
2023-03-11T10:05:45.117Z,49.89
2023-03-11T10:08:23.261Z,49.00
2023-03-11T10:10:59.297Z,49.82
2023-03-11T10:13:37.128Z,49.73
2023-03-11T10:16:16.641Z,50.02
2023-03-11T10:18:55.340Z,50.09
2023-03-11T10:21:37.260Z,49.82
2023-03-11T10:24:18.497Z,49.17
2023-03-11T10:26:52.024Z,49.61
2023-03-11T10:29:27.243Z,49.81
2023-03-11T10:32:02.247Z,49.90
2023-03-11T10:34:38.765Z,50.16
2023-03-11T10:37:13.762Z,50.21
2023-03-11T10:39:42.673Z,49.87
2023-03-11T10:42:15.398Z,49.51
2023-03-11T10:44:45.292Z,49.82
2023-03-11T10:47:18.890Z,50.08
2023-03-11T10:49:47.743Z,48.79
2023-03-11T10:52:16.295Z,50.19
2023-03-11T10:54:48.164Z,49.67
2023-03-11T10:57:28.525Z,49.56
2023-03-11T11:00:00.421Z,49.95
2023-03-11T11:02:31.930Z,50.08
2023-03-11T11:05:09.924Z,50.24
2023-03-11T11:07:41.588Z,50.23
2023-03-11T11:10:21.778Z,50.34
2023-03-11T11:12:55.970Z,50.11
2023-03-11T11:15:28.742Z,49.54
2023-03-11T11:18:00.565Z,49.81
2023-03-11T11:20:30.458Z,50.32
2023-03-11T11:23:01.045Z,50.24
2023-03-11T11:25:33.330Z,50.40
2023-03-11T11:28:05.466Z,50.33
2023-03-11T11:30:35.476Z,50.16
2023-03-11T11:33:24.921Z,50.13
2023-03-11T11:35:56.222Z,50.64
2023-03-11T11:38:26.365Z,50.44
2023-03-11T11:40:57.794Z,50.25
2023-03-11T11:43:37.707Z,50.59
2023-03-11T11:46:17.125Z,49.40
2023-03-11T11:48:51.721Z,50.62
2023-03-11T11:51:23.154Z,50.59
2023-03-11T11:53:57.834Z,50.77
2023-03-11T11:56:27.157Z,50.71
2023-03-11T11:58:55.928Z,50.61
2023-03-11T12:01:38.713Z,50.58
2023-03-11T12:04:24.568Z,51.19
2023-03-11T12:07:02.839Z,51.10
2023-03-11T12:09:38.206Z,51.19
2023-03-11T12:12:16.670Z,51.28
2023-03-11T12:14:50.863Z,51.28
2023-03-11T12:17:24.372Z,50.96
2023-03-11T12:19:58.992Z,50.94
2023-03-11T12:23:00.750Z,50.95
2023-03-11T12:25:34.314Z,50.48
2023-03-11T12:28:13.799Z,50.51
2023-03-11T12:30:46.920Z,49.49
2023-03-11T12:33:24.326Z,49.49
2023-03-11T12:35:56.119Z,49.49
2023-03-11T12:38:33.107Z,49.71
2023-03-11T12:41:06.566Z,49.35
2023-03-11T12:44:11.463Z,49.20
2023-03-11T12:47:18.575Z,48.98
2023-03-11T12:49:49.567Z,49.70
2023-03-11T12:52:29.334Z,49.19
2023-03-11T12:55:36.416Z,48.94
2023-03-11T12:58:48.854Z,48.92
2023-03-11T13:01:32.744Z,49.30
2023-03-11T13:04:05.520Z,49.05
2023-03-11T13:06:53.736Z,48.77
2023-03-11T13:09:22.089Z,49.11
2023-03-11T13:11:51.478Z,48.71
2023-03-11T13:14:31.201Z,47.76
2023-03-11T13:17:24.867Z,48.15
2023-03-11T13:19:55.299Z,48.64
2023-03-11T13:23:14.126Z,48.74
2023-03-11T13:25:44.906Z,49.12
2023-03-11T13:28:29.068Z,48.55
2023-03-11T13:31:07.908Z,48.40
2023-03-11T13:33:49.598Z,47.94
2023-03-11T13:36:37.148Z,47.12
2023-03-11T13:39:33.417Z,46.94
2023-03-11T13:42:05.897Z,47.53
2023-03-11T13:44:38.996Z,47.74
2023-03-11T13:47:12.754Z,47.48
2023-03-11T13:49:43.951Z,47.83
2023-03-11T13:52:17.397Z,48.02
2023-03-11T13:54:50.101Z,48.11
2023-03-11T13:57:28.344Z,48.02
2023-03-11T13:59:58.002Z,47.83
2023-03-11T14:02:28.730Z,47.58
2023-03-11T14:05:00.145Z,47.40
2023-03-11T14:07:31.838Z,47.64
2023-03-11T14:10:26.449Z,47.30
2023-03-11T14:13:07.169Z,46.55
2023-03-11T14:15:45.126Z,46.66
2023-03-11T14:18:34.083Z,46.46
2023-03-11T14:21:03.866Z,46.76
2023-03-11T14:23:36.056Z,47.17
2023-03-11T14:26:08.648Z,47.12
2023-03-11T14:28:45.033Z,47.49
2023-03-11T14:31:25.854Z,47.26
2023-03-11T14:33:58.725Z,47.50
2023-03-11T14:36:27.041Z,47.54
2023-03-11T14:38:55.342Z,47.78
2023-03-11T14:41:23.641Z,47.27
2023-03-11T14:43:55.449Z,47.33
2023-03-11T14:46:29.661Z,47.36
2023-03-11T14:49:01.808Z,46.93
2023-03-11T14:51:34.573Z,46.86
2023-03-11T14:54:09.812Z,45.77
2023-03-11T14:56:43.335Z,45.91
2023-03-11T14:59:18.712Z,46.65
2023-03-11T15:01:48.645Z,46.84
2023-03-11T15:04:28.503Z,46.84
2023-03-11T15:06:58.039Z,46.72
2023-03-11T15:09:30.450Z,46.18
2023-03-11T15:12:00.134Z,46.81
2023-03-11T15:14:32.512Z,46.73
2023-03-11T15:17:17.508Z,46.01
2023-03-11T15:19:55.726Z,46.09
2023-03-11T15:22:27.184Z,46.29
2023-03-11T15:24:57.563Z,46.59
2023-03-11T15:27:32.187Z,46.55
2023-03-11T15:30:03.943Z,46.67
2023-03-11T15:32:40.985Z,46.31
2023-03-11T15:35:19.368Z,46.65
2023-03-11T15:37:49.044Z,46.64
2023-03-11T15:40:35.341Z,46.64
2023-03-11T15:43:24.865Z,46.30
2023-03-11T15:45:56.090Z,46.52
2023-03-11T15:48:25.071Z,46.07
2023-03-11T15:50:55.361Z,45.70
2023-03-11T15:53:25.095Z,45.92
2023-03-11T15:55:55.019Z,45.99
2023-03-11T15:58:23.405Z,46.06
2023-03-11T16:00:53.423Z,46.15
2023-03-11T16:03:23.780Z,46.22
2023-03-11T16:05:52.622Z,46.13
2023-03-11T16:08:21.093Z,46.12
2023-03-11T16:10:49.471Z,46.39
2023-03-11T16:13:18.563Z,46.16
2023-03-11T16:15:47.355Z,46.44
2023-03-11T16:18:16.024Z,46.56
2023-03-11T16:20:48.915Z,46.39
2023-03-11T16:23:20.591Z,46.22
2023-03-11T16:25:50.280Z,46.48
2023-03-11T16:28:19.562Z,45.78
2023-03-11T16:30:47.946Z,45.39
2023-03-11T16:33:16.368Z,45.55
2023-03-11T16:35:46.439Z,45.23
2023-03-11T16:38:15.137Z,45.26
2023-03-11T16:40:43.733Z,45.28
2023-03-11T16:43:14.860Z,45.34
2023-03-11T16:45:43.246Z,45.50
2023-03-11T16:48:11.492Z,45.20
2023-03-11T16:50:39.834Z,45.47
2023-03-11T16:53:09.584Z,45.60
2023-03-11T16:55:39.453Z,45.40
2023-03-11T16:58:07.777Z,45.74
2023-03-11T17:00:36.326Z,45.92
2023-03-11T17:03:05.107Z,45.80
2023-03-11T17:05:33.432Z,44.93
2023-03-11T17:08:04.428Z,45.31
2023-03-11T17:10:38.471Z,45.13
2023-03-11T17:13:06.853Z,45.30
2023-03-11T17:15:38.132Z,45.43
2023-03-11T17:18:07.349Z,45.58
2023-03-11T17:20:37.284Z,45.85
2023-03-11T17:23:05.843Z,45.99
2023-03-11T17:25:35.907Z,46.02
2023-03-11T17:28:04.272Z,46.28
2023-03-11T17:30:37.103Z,46.51
2023-03-11T17:33:06.175Z,46.68
2023-03-11T17:35:34.942Z,46.46
2023-03-11T17:38:03.327Z,46.82
2023-03-11T17:40:32.852Z,47.10
2023-03-11T17:43:02.799Z,47.35
2023-03-11T17:45:31.713Z,46.96
2023-03-11T17:48:00.124Z,47.41
2023-03-11T17:50:28.483Z,47.14
2023-03-11T17:52:57.628Z,47.28
2023-03-11T17:55:26.468Z,47.43
2023-03-11T17:57:54.864Z,47.82
2023-03-11T18:00:25.394Z,47.62
2023-03-11T18:02:53.881Z,47.36
2023-03-11T18:05:22.617Z,47.55
2023-03-11T18:07:51.489Z,47.96
2023-03-11T18:10:20.344Z,47.59
2023-03-11T18:12:49.993Z,48.04
2023-03-11T18:15:19.763Z,48.23
2023-03-11T18:17:50.328Z,48.11
2023-03-11T18:20:19.184Z,48.39
2023-03-11T18:22:47.581Z,48.31
2023-03-11T18:25:16.082Z,48.52
2023-03-11T18:27:44.867Z,48.64
2023-03-11T18:30:14.645Z,48.82
2023-03-11T18:32:43.431Z,49.05
2023-03-11T18:35:14.378Z,49.25
2023-03-11T18:37:42.874Z,49.26
2023-03-11T18:40:14.151Z,48.99
2023-03-11T18:42:42.969Z,49.35
2023-03-11T18:45:12.678Z,49.16
2023-03-11T18:47:41.141Z,49.40
2023-03-11T18:50:10.669Z,49.47
2023-03-11T18:52:40.530Z,49.70
2023-03-11T18:55:09.615Z,49.57
2023-03-11T18:57:40.467Z,49.41
2023-03-11T19:00:10.647Z,49.63
2023-03-11T19:02:38.913Z,49.66
2023-03-11T19:05:08.667Z,49.69
2023-03-11T19:07:37.091Z,49.53
2023-03-11T19:10:07.805Z,50.05
2023-03-11T19:12:37.399Z,50.34
2023-03-11T19:15:06.733Z,49.99
2023-03-11T19:17:35.115Z,50.14
2023-03-11T19:20:03.973Z,50.33
2023-03-11T19:22:32.300Z,50.04
2023-03-11T19:25:01.464Z,50.45
2023-03-11T19:27:32.307Z,50.11
2023-03-11T19:30:01.320Z,50.40
2023-03-11T19:32:31.310Z,50.23
2023-03-11T19:35:00.962Z,50.49
2023-03-11T19:37:32.656Z,50.53
2023-03-11T19:40:02.122Z,50.38
2023-03-11T19:42:35.164Z,49.98
2023-03-11T19:45:04.933Z,50.08
2023-03-11T19:47:33.707Z,50.59
2023-03-11T19:50:02.591Z,50.08
2023-03-11T19:52:31.563Z,50.17
2023-03-11T19:55:00.808Z,50.05
2023-03-11T19:57:30.168Z,50.10
2023-03-11T20:00:00.872Z,50.34
2023-03-11T20:02:31.304Z,50.08
2023-03-11T20:05:00.775Z,50.47
2023-03-11T20:07:30.437Z,50.57
2023-03-11T20:09:58.955Z,50.64
2023-03-11T20:12:31.319Z,50.52
2023-03-11T20:15:02.966Z,50.80
2023-03-11T20:17:32.923Z,50.51
2023-03-11T20:20:02.747Z,50.32
2023-03-11T20:22:31.220Z,50.67
2023-03-11T20:24:59.965Z,50.98
2023-03-11T20:27:29.100Z,50.62
2023-03-11T20:29:58.134Z,50.62
2023-03-11T20:32:29.607Z,50.81
2023-03-11T20:34:58.869Z,50.82
2023-03-11T20:37:29.118Z,50.97
2023-03-11T20:39:58.156Z,50.59
2023-03-11T20:42:26.974Z,50.69
2023-03-11T20:44:56.422Z,50.69
2023-03-11T20:47:25.052Z,50.75
2023-03-11T20:49:57.368Z,50.82
2023-03-11T20:52:28.214Z,51.01
2023-03-11T20:54:57.027Z,50.80
2023-03-11T20:57:26.255Z,50.84
2023-03-11T20:59:54.666Z,50.98
2023-03-11T21:02:24.045Z,50.88
2023-03-11T21:04:52.747Z,50.62
2023-03-11T21:07:22.626Z,50.83
2023-03-11T21:09:54.664Z,51.22
2023-03-11T21:12:23.505Z,50.64
2023-03-11T21:14:51.907Z,50.87
2023-03-11T21:17:20.320Z,50.69
2023-03-11T21:19:48.757Z,50.97
2023-03-11T21:22:17.139Z,50.71
2023-03-11T21:24:47.036Z,50.52
2023-03-11T21:27:15.348Z,50.80
2023-03-11T21:29:44.095Z,50.79
2023-03-11T21:32:12.660Z,51.03
2023-03-11T21:34:41.180Z,51.27
2023-03-11T21:37:09.549Z,51.15
2023-03-11T21:39:38.245Z,50.83
2023-03-11T21:42:08.187Z,51.06
2023-03-11T21:44:36.657Z,50.95
2023-03-11T21:47:05.177Z,50.83
2023-03-11T21:49:33.714Z,50.73
2023-03-11T21:52:02.501Z,50.85
2023-03-11T21:54:31.302Z,51.16
2023-03-11T21:56:59.654Z,51.19
2023-03-11T21:59:30.827Z,51.34
2023-03-11T22:02:03.283Z,51.02
2023-03-11T22:04:32.539Z,51.15
2023-03-11T22:07:01.070Z,51.26
2023-03-11T22:09:29.402Z,51.03
2023-03-11T22:11:57.896Z,51.34
2023-03-11T22:14:26.796Z,51.50
2023-03-11T22:16:56.701Z,51.47
2023-03-11T22:19:25.267Z,51.28
2023-03-11T22:21:53.777Z,51.28
2023-03-11T22:24:22.111Z,51.10
2023-03-11T22:26:50.915Z,51.09
2023-03-11T22:29:19.191Z,51.37
2023-03-11T22:31:48.308Z,51.15
2023-03-11T22:34:18.159Z,51.19
2023-03-11T22:36:46.438Z,51.36
2023-03-11T22:39:14.754Z,51.70
2023-03-11T22:41:43.090Z,51.64
2023-03-11T22:44:11.676Z,51.34
2023-03-11T22:46:40.164Z,51.23
2023-03-11T22:49:08.539Z,51.18
2023-03-11T22:51:38.309Z,51.54
2023-03-11T22:54:07.118Z,51.68
2023-03-11T22:56:35.839Z,51.11
2023-03-11T22:59:04.594Z,51.69
2023-03-11T23:01:33.586Z,51.59
2023-03-11T23:04:02.277Z,51.66
2023-03-11T23:06:30.644Z,51.33
2023-03-11T23:09:00.643Z,51.71
2023-03-11T23:11:29.015Z,51.70
2023-03-11T23:13:57.499Z,51.52
2023-03-11T23:16:26.274Z,51.50
2023-03-11T23:18:55.654Z,51.81
2023-03-11T23:21:25.849Z,51.36
2023-03-11T23:23:54.883Z,51.30
2023-03-11T23:26:25.164Z,51.96
2023-03-11T23:28:53.974Z,51.32
2023-03-11T23:31:24.918Z,51.66
2023-03-11T23:33:53.540Z,51.16
2023-03-11T23:36:23.540Z,51.53
2023-03-11T23:38:52.087Z,51.89
2023-03-11T23:41:23.785Z,51.73
2023-03-11T23:43:53.597Z,51.85
2023-03-11T23:46:22.311Z,51.96
2023-03-11T23:48:50.688Z,52.16
2023-03-11T23:51:19.105Z,51.40
2023-03-11T23:53:47.490Z,51.69
2023-03-11T23:56:18.561Z,52.01
2023-03-11T23:58:47.615Z,51.55
